createdAt,value
2022-08-21T00:00:20.749Z,82.37
2022-08-21T00:01:12.318Z,82.14
2022-08-21T00:01:59.407Z,82.07
2022-08-21T00:02:52.649Z,82.32
2022-08-21T00:03:40.088Z,82.10
2022-08-21T00:04:29.528Z,82.08
2022-08-21T00:05:17.808Z,82.66
2022-08-21T00:06:04.799Z,82.88
2022-08-21T00:06:52.768Z,83.02
2022-08-21T00:07:39.588Z,82.98
2022-08-21T00:08:26.470Z,83.11
2022-08-21T00:09:13.369Z,82.74
2022-08-21T00:10:00.416Z,82.53
2022-08-21T00:10:48.578Z,82.12
2022-08-21T00:11:37.030Z,82.05
2022-08-21T00:12:24.208Z,82.24
2022-08-21T00:13:11.685Z,82.32
2022-08-21T00:13:59.318Z,81.96
2022-08-21T00:14:46.631Z,81.87
2022-08-21T00:15:35.571Z,81.97
2022-08-21T00:16:22.601Z,82.20
2022-08-21T00:17:09.359Z,81.70
2022-08-21T00:17:57.059Z,81.65
2022-08-21T00:18:43.969Z,82.07
2022-08-21T00:19:31.259Z,82.22
2022-08-21T00:20:18.976Z,81.92
2022-08-21T00:21:06.038Z,82.06
2022-08-21T00:21:54.410Z,81.77
2022-08-21T00:22:41.779Z,81.53
2022-08-21T00:23:28.581Z,80.71
2022-08-21T00:24:15.448Z,80.47
2022-08-21T00:25:03.458Z,80.74
2022-08-21T00:25:50.298Z,81.04
2022-08-21T00:26:37.318Z,80.95
2022-08-21T00:27:24.259Z,81.02
2022-08-21T00:28:11.790Z,80.82
2022-08-21T00:28:58.990Z,81.14
2022-08-21T00:29:45.989Z,80.95
2022-08-21T00:30:33.540Z,80.62
2022-08-21T00:31:20.399Z,80.85
2022-08-21T00:32:07.389Z,81.21
2022-08-21T00:32:56.354Z,81.13
2022-08-21T00:33:43.929Z,80.49
2022-08-21T00:34:30.809Z,79.94
2022-08-21T00:35:20.512Z,80.18
2022-08-21T00:36:07.619Z,80.64
2022-08-21T00:36:54.380Z,80.68
2022-08-21T00:37:42.272Z,80.23
2022-08-21T00:38:29.278Z,79.58
2022-08-21T00:39:16.109Z,79.86
2022-08-21T00:40:03.879Z,80.06
2022-08-21T00:40:57.559Z,80.53
2022-08-21T00:41:47.320Z,80.80
2022-08-21T00:42:34.481Z,80.73
2022-08-21T00:43:25.397Z,80.59
2022-08-21T00:44:16.450Z,80.25
2022-08-21T00:45:04.732Z,79.99
2022-08-21T00:45:53.860Z,79.71
2022-08-21T00:46:42.355Z,79.88
2022-08-21T00:47:29.219Z,80.17
2022-08-21T00:48:17.135Z,80.35
2022-08-21T00:49:05.199Z,80.36
2022-08-21T00:49:52.059Z,80.66
2022-08-21T00:50:43.449Z,80.55
2022-08-21T00:51:38.536Z,80.66
2022-08-21T00:52:28.820Z,80.85
2022-08-21T00:53:16.629Z,80.92
2022-08-21T00:54:05.219Z,81.16
2022-08-21T00:54:52.650Z,81.03
2022-08-21T00:55:39.519Z,81.38
2022-08-21T00:56:27.099Z,81.10
2022-08-21T00:57:20.869Z,80.82
2022-08-21T00:58:11.420Z,80.73
2022-08-21T00:58:59.750Z,80.57
2022-08-21T00:59:50.087Z,80.66
2022-08-21T01:00:39.624Z,80.79
2022-08-21T01:01:26.615Z,81.26
2022-08-21T01:02:13.834Z,80.85
2022-08-21T01:03:02.429Z,80.33
2022-08-21T01:03:54.769Z,80.47
2022-08-21T01:04:41.800Z,80.47
2022-08-21T01:05:29.039Z,80.12
2022-08-21T01:06:15.859Z,80.22
2022-08-21T01:07:03.539Z,80.29
2022-08-21T01:07:50.599Z,80.40
2022-08-21T01:08:37.640Z,80.17
2022-08-21T01:09:33.870Z,80.42
2022-08-21T01:10:23.937Z,80.36
2022-08-21T01:11:10.979Z,80.24
2022-08-21T01:11:57.860Z,80.47
2022-08-21T01:12:44.780Z,80.01
2022-08-21T01:13:34.489Z,79.96
2022-08-21T01:14:21.599Z,80.02
2022-08-21T01:15:09.259Z,80.15
2022-08-21T01:15:58.200Z,80.10
2022-08-21T01:16:48.030Z,80.31
2022-08-21T01:17:35.449Z,80.34
2022-08-21T01:18:22.627Z,80.37
2022-08-21T01:19:09.639Z,80.55
2022-08-21T01:20:00.213Z,80.70
2022-08-21T01:21:09.579Z,81.22
2022-08-21T01:22:00.829Z,81.15
2022-08-21T01:22:47.999Z,81.17
2022-08-21T01:23:37.251Z,81.02
2022-08-21T01:24:24.707Z,80.34
2022-08-21T01:25:13.679Z,80.50
2022-08-21T01:26:00.659Z,80.91
2022-08-21T01:26:47.669Z,80.62
2022-08-21T01:27:34.870Z,80.20
2022-08-21T01:28:23.041Z,79.61
2022-08-21T01:29:36.049Z,79.54
2022-08-21T01:30:26.000Z,79.95
2022-08-21T01:31:14.360Z,79.63
2022-08-21T01:32:06.110Z,78.99
2022-08-21T01:32:54.308Z,79.35
2022-08-21T01:33:41.633Z,79.71
2022-08-21T01:34:28.549Z,79.90
2022-08-21T01:35:17.260Z,79.95
2022-08-21T01:36:04.621Z,79.96
2022-08-21T01:36:51.619Z,80.24
2022-08-21T01:37:38.866Z,80.13
2022-08-21T01:38:26.449Z,79.56
2022-08-21T01:39:15.659Z,79.28
2022-08-21T01:40:03.688Z,79.41
2022-08-21T01:40:50.542Z,79.09
2022-08-21T01:41:37.459Z,79.46
2022-08-21T01:42:24.470Z,80.01
2022-08-21T01:43:11.360Z,79.52
2022-08-21T01:43:58.269Z,79.71
2022-08-21T01:44:45.218Z,79.96
2022-08-21T01:45:32.269Z,79.63
2022-08-21T01:46:19.940Z,79.73
2022-08-21T01:47:09.139Z,79.68
2022-08-21T01:47:56.039Z,79.94
2022-08-21T01:48:43.109Z,80.24
2022-08-21T01:49:29.930Z,79.66
2022-08-21T01:50:19.240Z,79.51
2022-08-21T01:51:06.609Z,79.28
2022-08-21T01:51:53.769Z,79.48
2022-08-21T01:52:40.779Z,79.19
2022-08-21T01:53:33.352Z,78.88
2022-08-21T01:54:20.529Z,79.00
2022-08-21T01:55:08.759Z,79.35
2022-08-21T01:55:55.700Z,79.41
2022-08-21T01:56:49.329Z,79.53
2022-08-21T01:57:36.679Z,79.32
2022-08-21T01:58:23.601Z,78.66
2022-08-21T01:59:10.799Z,78.91
2022-08-21T01:59:57.790Z,79.29
2022-08-21T02:00:44.772Z,79.55
2022-08-21T02:01:31.641Z,79.69
2022-08-21T02:02:18.489Z,79.43
2022-08-21T02:03:05.550Z,79.58
2022-08-21T02:03:52.480Z,79.60
2022-08-21T02:04:39.439Z,79.55
2022-08-21T02:05:26.499Z,79.65
2022-08-21T02:06:18.768Z,79.82
2022-08-21T02:07:08.363Z,79.85
2022-08-21T02:07:57.442Z,80.00
2022-08-21T02:08:44.670Z,79.71
2022-08-21T02:09:31.620Z,79.70
2022-08-21T02:10:32.011Z,79.40
2022-08-21T02:11:19.270Z,79.25
2022-08-21T02:12:06.350Z,79.01
2022-08-21T02:12:53.635Z,78.89
2022-08-21T02:13:40.930Z,78.38
2022-08-21T02:14:32.839Z,78.46
2022-08-21T02:15:20.441Z,79.08
2022-08-21T02:16:08.989Z,78.62
2022-08-21T02:16:55.830Z,78.59
2022-08-21T02:17:58.660Z,78.64
2022-08-21T02:18:45.620Z,79.11
2022-08-21T02:19:39.591Z,78.67
2022-08-21T02:20:37.276Z,78.65
2022-08-21T02:21:24.159Z,79.17
2022-08-21T02:22:11.341Z,78.81
2022-08-21T02:22:58.509Z,78.72
2022-08-21T02:23:46.499Z,78.73
2022-08-21T02:24:33.350Z,79.04
2022-08-21T02:25:21.671Z,79.34
2022-08-21T02:26:09.619Z,79.35
2022-08-21T02:26:56.488Z,78.92
2022-08-21T02:27:44.990Z,78.94
2022-08-21T02:28:32.541Z,78.67
2022-08-21T02:29:19.441Z,78.81
2022-08-21T02:30:06.680Z,78.51
2022-08-21T02:30:54.039Z,78.60
2022-08-21T02:31:40.980Z,78.61
2022-08-21T02:32:27.862Z,78.38
2022-08-21T02:33:15.910Z,78.01
2022-08-21T02:34:02.841Z,78.20
2022-08-21T02:34:50.043Z,78.69
2022-08-21T02:35:38.242Z,78.38
2022-08-21T02:36:26.129Z,78.03
2022-08-21T02:37:13.630Z,77.87
2022-08-21T02:38:05.320Z,77.66
2022-08-21T02:38:52.399Z,77.84
2022-08-21T02:39:39.216Z,78.07
2022-08-21T02:40:33.279Z,78.04
2022-08-21T02:41:22.302Z,78.34
2022-08-21T02:42:09.169Z,78.14
2022-08-21T02:42:56.069Z,77.67
2022-08-21T02:43:43.641Z,77.88
2022-08-21T02:44:34.600Z,78.18
2022-08-21T02:45:21.911Z,78.27
2022-08-21T02:46:09.925Z,78.37
2022-08-21T02:46:56.799Z,78.54
2022-08-21T02:47:55.730Z,78.64
2022-08-21T02:48:43.090Z,78.77
2022-08-21T02:49:30.149Z,78.84
2022-08-21T02:50:20.889Z,78.49
2022-08-21T02:51:10.631Z,78.62
2022-08-21T02:51:57.569Z,79.14
2022-08-21T02:52:44.450Z,79.22
2022-08-21T02:53:32.100Z,79.44
2022-08-21T02:54:18.939Z,79.08
2022-08-21T02:55:06.260Z,79.05
2022-08-21T02:55:54.280Z,78.80
2022-08-21T02:56:41.120Z,78.10
2022-08-21T02:57:28.212Z,78.36
2022-08-21T02:58:16.769Z,78.35
2022-08-21T02:59:03.771Z,78.39
2022-08-21T02:59:50.600Z,78.41
2022-08-21T03:00:38.560Z,79.01
2022-08-21T03:01:26.112Z,78.55
2022-08-21T03:02:13.021Z,78.56
2022-08-21T03:03:00.822Z,78.96
2022-08-21T03:03:51.003Z,79.11
2022-08-21T03:04:37.859Z,78.39
2022-08-21T03:05:26.010Z,78.63
2022-08-21T03:06:15.571Z,78.97
2022-08-21T03:07:02.449Z,79.15
2022-08-21T03:07:49.999Z,78.69
2022-08-21T03:08:37.570Z,78.66
2022-08-21T03:09:25.369Z,78.13
2022-08-21T03:10:12.220Z,78.21
2022-08-21T03:11:00.949Z,78.26
2022-08-21T03:11:47.988Z,78.47
2022-08-21T03:12:36.640Z,79.16
2022-08-21T03:13:23.910Z,78.65
2022-08-21T03:14:10.750Z,78.32
2022-08-21T03:14:58.903Z,78.22
2022-08-21T03:15:46.000Z,77.59
2022-08-21T03:16:35.045Z,77.68
2022-08-21T03:17:29.568Z,78.53
2022-08-21T03:18:18.120Z,78.72
2022-08-21T03:19:05.029Z,78.65
2022-08-21T03:19:51.860Z,78.95
2022-08-21T03:20:42.210Z,79.26
2022-08-21T03:21:29.762Z,78.82
2022-08-21T03:22:16.699Z,78.09
2022-08-21T03:23:12.419Z,78.13
2022-08-21T03:24:00.209Z,78.97
2022-08-21T03:24:51.059Z,78.66
2022-08-21T03:25:39.785Z,77.98
2022-08-21T03:26:28.071Z,78.13
2022-08-21T03:27:15.030Z,78.39
2022-08-21T03:28:02.987Z,78.06
2022-08-21T03:28:49.992Z,78.39
2022-08-21T03:29:36.830Z,78.86
2022-08-21T03:30:23.621Z,78.87
2022-08-21T03:31:10.551Z,77.88
2022-08-21T03:31:57.410Z,77.86
2022-08-21T03:32:45.540Z,78.23
2022-08-21T03:33:32.296Z,78.39
2022-08-21T03:34:21.249Z,77.29
2022-08-21T03:35:09.419Z,77.34
2022-08-21T03:36:01.731Z,77.71
2022-08-21T03:36:50.161Z,78.03
2022-08-21T03:37:37.500Z,78.59
2022-08-21T03:38:26.812Z,78.10
2022-08-21T03:39:13.981Z,78.15
2022-08-21T03:40:01.286Z,77.89
2022-08-21T03:40:48.281Z,77.76
2022-08-21T03:41:35.022Z,77.69
2022-08-21T03:42:21.951Z,77.87
2022-08-21T03:43:10.760Z,77.56
2022-08-21T03:43:57.801Z,77.61
2022-08-21T03:44:44.818Z,77.27
2022-08-21T03:45:31.810Z,77.23
2022-08-21T03:46:18.630Z,77.41
2022-08-21T03:47:05.709Z,77.46
2022-08-21T03:48:01.759Z,77.67
2022-08-21T03:48:48.642Z,77.36
2022-08-21T03:49:35.640Z,77.62
2022-08-21T03:50:23.683Z,77.97
2022-08-21T03:51:10.511Z,78.08
2022-08-21T03:51:59.181Z,77.97
2022-08-21T03:52:46.750Z,78.29
2022-08-21T03:53:33.651Z,77.96
2022-08-21T03:54:21.041Z,77.64
2022-08-21T03:55:08.120Z,77.54
2022-08-21T03:55:55.671Z,77.61
2022-08-21T03:56:42.664Z,77.87
2022-08-21T03:57:30.060Z,78.24
2022-08-21T03:58:18.532Z,77.68
2022-08-21T03:59:05.330Z,77.69
2022-08-21T03:59:52.109Z,78.00
2022-08-21T04:00:39.123Z,77.94
2022-08-21T04:01:26.206Z,78.02
2022-08-21T04:02:15.465Z,78.33
2022-08-21T04:03:02.362Z,77.96
2022-08-21T04:03:49.186Z,78.09
2022-08-21T04:04:36.599Z,77.79
2022-08-21T04:05:29.409Z,77.80
2022-08-21T04:06:16.340Z,77.88
2022-08-21T04:07:04.650Z,77.73
2022-08-21T04:07:51.479Z,77.96
2022-08-21T04:08:38.331Z,76.81
2022-08-21T04:09:26.161Z,77.10
2022-08-21T04:10:13.019Z,77.40
2022-08-21T04:10:59.989Z,77.94
2022-08-21T04:11:48.029Z,78.20
2022-08-21T04:12:34.813Z,77.81
2022-08-21T04:13:22.390Z,77.88
2022-08-21T04:14:09.399Z,78.05
2022-08-21T04:14:56.201Z,77.19
2022-08-21T04:15:43.818Z,77.20
2022-08-21T04:16:30.622Z,77.60
2022-08-21T04:17:17.473Z,77.22
2022-08-21T04:18:05.311Z,76.71
2022-08-21T04:18:52.120Z,76.75
2022-08-21T04:19:38.899Z,76.96
2022-08-21T04:20:26.203Z,77.11
2022-08-21T04:21:13.446Z,77.20
2022-08-21T04:22:00.360Z,77.23
2022-08-21T04:22:47.308Z,76.79
2022-08-21T04:23:34.353Z,76.94
2022-08-21T04:24:21.198Z,77.54
2022-08-21T04:25:08.579Z,77.68
2022-08-21T04:25:56.751Z,77.61
2022-08-21T04:26:43.593Z,77.28
2022-08-21T04:27:30.400Z,77.63
2022-08-21T04:28:17.249Z,77.72
2022-08-21T04:29:07.731Z,77.54
2022-08-21T04:29:57.281Z,77.55
2022-08-21T04:30:44.360Z,77.58
2022-08-21T04:31:31.210Z,77.33
2022-08-21T04:32:25.441Z,77.91
2022-08-21T04:33:12.660Z,77.64
2022-08-21T04:34:00.290Z,77.89
2022-08-21T04:34:47.331Z,77.82
2022-08-21T04:35:34.329Z,77.99
2022-08-21T04:36:23.647Z,77.99
2022-08-21T04:37:11.400Z,77.52
2022-08-21T04:37:58.641Z,77.49
2022-08-21T04:38:45.541Z,78.02
2022-08-21T04:39:32.701Z,77.72
2022-08-21T04:40:21.658Z,77.39
2022-08-21T04:41:08.509Z,76.90
2022-08-21T04:41:55.286Z,77.08
2022-08-21T04:43:07.882Z,77.52
2022-08-21T04:43:56.369Z,77.44
2022-08-21T04:44:43.200Z,77.28
2022-08-21T04:45:33.656Z,77.41
2022-08-21T04:46:20.360Z,77.53
2022-08-21T04:47:07.180Z,77.35
2022-08-21T04:47:57.860Z,77.34
2022-08-21T04:48:44.660Z,77.52
2022-08-21T04:49:32.320Z,77.28
2022-08-21T04:50:19.980Z,77.78
2022-08-21T04:51:13.630Z,77.33
2022-08-21T04:52:01.008Z,77.26
2022-08-21T04:52:48.160Z,77.29
2022-08-21T04:53:41.629Z,77.72
2022-08-21T04:54:28.510Z,76.94
2022-08-21T04:55:17.831Z,77.02
2022-08-21T04:56:14.549Z,76.57
2022-08-21T04:57:07.009Z,77.26
2022-08-21T04:57:54.751Z,77.59
2022-08-21T04:58:43.101Z,77.71
2022-08-21T04:59:37.221Z,76.92
2022-08-21T05:00:25.841Z,76.72
2022-08-21T05:01:20.314Z,77.13
2022-08-21T05:02:08.869Z,77.68
2022-08-21T05:03:00.112Z,77.34
2022-08-21T05:03:48.794Z,77.32
2022-08-21T05:04:39.189Z,77.62
2022-08-21T05:05:26.541Z,77.47
2022-08-21T05:06:14.599Z,77.19
2022-08-21T05:07:03.949Z,77.52
2022-08-21T05:07:51.321Z,77.39
2022-08-21T05:08:38.703Z,77.34
2022-08-21T05:09:25.960Z,77.35
2022-08-21T05:10:15.097Z,77.12
2022-08-21T05:11:02.216Z,77.50
2022-08-21T05:11:49.996Z,77.10
2022-08-21T05:12:37.050Z,77.14
2022-08-21T05:13:24.690Z,77.17
2022-08-21T05:14:12.730Z,77.25
2022-08-21T05:14:59.550Z,78.00
2022-08-21T05:15:46.453Z,77.45
2022-08-21T05:16:37.149Z,77.32
2022-08-21T05:17:24.701Z,77.38
2022-08-21T05:18:12.112Z,77.33
2022-08-21T05:18:59.749Z,76.68
2022-08-21T05:19:46.600Z,76.87
2022-08-21T05:20:35.625Z,77.23
2022-08-21T05:21:22.511Z,77.58
2022-08-21T05:22:10.477Z,78.04
2022-08-21T05:22:57.735Z,77.88
2022-08-21T05:23:44.759Z,77.27
2022-08-21T05:24:33.689Z,77.76
2022-08-21T05:25:22.140Z,77.83
2022-08-21T05:26:18.667Z,78.09
2022-08-21T05:27:06.320Z,77.98
2022-08-21T05:27:53.360Z,78.25
2022-08-21T05:28:40.169Z,78.43
2022-08-21T05:29:28.223Z,78.23
2022-08-21T05:30:16.144Z,77.91
2022-08-21T05:31:02.924Z,78.04
2022-08-21T05:31:49.805Z,77.77
2022-08-21T05:32:37.704Z,77.70
2022-08-21T05:33:25.162Z,77.88
2022-08-21T05:34:13.034Z,77.72
2022-08-21T05:35:05.374Z,77.54
2022-08-21T05:35:53.909Z,77.25
2022-08-21T05:36:40.723Z,77.04
2022-08-21T05:37:27.564Z,77.33
2022-08-21T05:38:16.532Z,77.19
2022-08-21T05:39:05.858Z,76.40
2022-08-21T05:40:05.288Z,76.31
2022-08-21T05:40:59.654Z,76.00
2022-08-21T05:41:46.521Z,76.46
2022-08-21T05:42:33.407Z,76.37
2022-08-21T05:43:20.919Z,75.66
2022-08-21T05:44:10.036Z,75.70
2022-08-21T05:44:57.735Z,76.02
2022-08-21T05:45:46.144Z,75.85
2022-08-21T05:46:32.967Z,75.99
2022-08-21T05:47:19.831Z,75.79
2022-08-21T05:48:08.226Z,76.35
2022-08-21T05:48:55.102Z,76.35
2022-08-21T05:49:41.871Z,76.33
2022-08-21T05:50:33.440Z,75.90
2022-08-21T05:51:20.594Z,76.13
2022-08-21T05:52:07.440Z,76.17
2022-08-21T05:52:56.577Z,76.52
2022-08-21T05:53:51.275Z,76.80
2022-08-21T05:54:39.080Z,76.46
2022-08-21T05:55:26.364Z,76.32
2022-08-21T05:56:14.251Z,76.32
2022-08-21T05:57:01.086Z,76.31
2022-08-21T05:57:47.920Z,76.39
2022-08-21T05:58:38.018Z,76.37
2022-08-21T05:59:25.262Z,75.68
2022-08-21T06:00:13.695Z,75.29
2022-08-21T06:01:01.400Z,75.36
2022-08-21T06:01:48.351Z,75.12
2022-08-21T06:02:35.242Z,75.22
2022-08-21T06:03:25.797Z,75.42
2022-08-21T06:04:12.912Z,75.43
2022-08-21T06:04:59.841Z,75.19
2022-08-21T06:05:47.427Z,75.06
2022-08-21T06:06:35.377Z,74.51
2022-08-21T06:07:22.254Z,74.51
2022-08-21T06:08:09.261Z,74.41
2022-08-21T06:08:55.995Z,74.47
2022-08-21T06:09:43.046Z,73.69
2022-08-21T06:10:29.850Z,73.74
2022-08-21T06:11:16.809Z,73.91
2022-08-21T06:12:07.838Z,74.08
2022-08-21T06:12:56.222Z,74.25
2022-08-21T06:13:43.235Z,74.12
2022-08-21T06:14:30.010Z,73.67
2022-08-21T06:15:17.060Z,73.58
2022-08-21T06:16:05.330Z,73.55
2022-08-21T06:16:52.331Z,73.43
2022-08-21T06:17:39.129Z,72.82
2022-08-21T06:18:26.491Z,72.82
2022-08-21T06:19:13.520Z,72.07
2022-08-21T06:20:00.360Z,71.57
2022-08-21T06:20:47.320Z,71.50
2022-08-21T06:21:34.261Z,71.33
2022-08-21T06:22:21.383Z,71.72
2022-08-21T06:23:08.560Z,71.70
2022-08-21T06:23:55.342Z,70.87
2022-08-21T06:24:42.361Z,70.62
2022-08-21T06:25:30.341Z,70.59
2022-08-21T06:26:17.806Z,70.16
2022-08-21T06:27:08.768Z,69.47
2022-08-21T06:28:10.591Z,69.15
2022-08-21T06:28:58.079Z,69.67
2022-08-21T06:29:46.252Z,68.99
2022-08-21T06:30:33.720Z,67.98
2022-08-21T06:31:23.249Z,67.33
2022-08-21T06:32:12.990Z,67.19
2022-08-21T06:33:00.138Z,66.45
2022-08-21T06:33:47.821Z,66.17
2022-08-21T06:34:39.171Z,65.35
2022-08-21T06:35:26.253Z,65.23
2022-08-21T06:36:13.180Z,65.08
2022-08-21T06:37:00.101Z,64.72
2022-08-21T06:37:46.990Z,65.41
2022-08-21T06:38:33.951Z,65.08
2022-08-21T06:39:24.825Z,64.89
2022-08-21T06:40:17.897Z,64.29
2022-08-21T06:41:05.692Z,64.01
2022-08-21T06:41:54.303Z,63.55
2022-08-21T06:42:42.881Z,63.80
2022-08-21T06:43:39.369Z,63.59
2022-08-21T06:44:27.041Z,63.23
2022-08-21T06:45:14.363Z,63.01
2022-08-21T06:46:01.292Z,63.43
2022-08-21T06:46:48.632Z,63.03
2022-08-21T06:47:35.610Z,63.26
2022-08-21T06:48:22.481Z,63.56
2022-08-21T06:49:09.330Z,62.87
2022-08-21T06:50:09.223Z,63.33
2022-08-21T06:50:57.170Z,63.29
2022-08-21T06:51:44.090Z,62.95
2022-08-21T06:52:30.940Z,62.57
2022-08-21T06:53:20.651Z,63.65
2022-08-21T06:54:07.904Z,63.38
2022-08-21T06:54:54.762Z,63.29
2022-08-21T06:55:43.360Z,63.76
2022-08-21T06:56:30.221Z,63.74
2022-08-21T06:57:18.895Z,63.36
2022-08-21T06:58:06.530Z,63.91
2022-08-21T06:58:53.481Z,63.72
2022-08-21T06:59:40.250Z,63.79
2022-08-21T07:00:27.571Z,63.84
2022-08-21T07:01:14.528Z,63.95
2022-08-21T07:02:01.491Z,63.88
2022-08-21T07:02:48.632Z,63.73
2022-08-21T07:03:41.181Z,64.14
2022-08-21T07:04:28.388Z,64.36
2022-08-21T07:05:18.125Z,64.79
2022-08-21T07:06:07.221Z,63.73
2022-08-21T07:06:54.361Z,63.44
2022-08-21T07:07:41.230Z,63.06
2022-08-21T07:08:29.066Z,63.47
2022-08-21T07:10:03.243Z,62.09
2022-08-21T07:10:50.391Z,62.00
2022-08-21T07:11:44.132Z,62.68
2022-08-21T07:12:34.514Z,62.46
2022-08-21T07:13:21.419Z,62.06
2022-08-21T07:14:08.330Z,62.47
2022-08-21T07:14:55.241Z,62.86
2022-08-21T07:15:42.233Z,63.01
2022-08-21T07:16:29.112Z,63.17
2022-08-21T07:17:15.895Z,62.75
2022-08-21T07:18:02.912Z,62.99
2022-08-21T07:18:49.838Z,63.02
2022-08-21T07:19:36.670Z,63.26
2022-08-21T07:20:23.612Z,62.98
2022-08-21T07:21:11.202Z,62.37
2022-08-21T07:22:02.020Z,63.53
2022-08-21T07:22:48.890Z,63.46
2022-08-21T07:23:41.020Z,62.87
2022-08-21T07:24:29.542Z,63.49
2022-08-21T07:25:16.325Z,64.03
2022-08-21T07:26:03.279Z,64.21
2022-08-21T07:26:51.321Z,64.33
2022-08-21T07:27:38.170Z,64.41
2022-08-21T07:28:25.061Z,64.96
2022-08-21T07:29:11.978Z,64.56
2022-08-21T07:29:59.509Z,64.67
2022-08-21T07:30:46.798Z,64.69
2022-08-21T07:31:33.791Z,64.54
2022-08-21T07:32:21.452Z,64.72
2022-08-21T07:33:08.561Z,63.78
2022-08-21T07:33:55.684Z,63.61
2022-08-21T07:34:43.200Z,63.92
2022-08-21T07:35:30.411Z,63.55
2022-08-21T07:36:18.610Z,63.42
2022-08-21T07:37:07.804Z,62.79
2022-08-21T07:37:57.130Z,63.30
2022-08-21T07:38:43.969Z,63.62
2022-08-21T07:39:30.915Z,62.58
2022-08-21T07:40:18.488Z,63.06
2022-08-21T07:41:12.112Z,63.11
2022-08-21T07:42:01.446Z,63.24
2022-08-21T07:42:52.753Z,63.46
2022-08-21T07:43:39.644Z,63.67
2022-08-21T07:44:35.365Z,63.03
2022-08-21T07:45:24.065Z,63.36
2022-08-21T07:46:11.491Z,62.96
2022-08-21T07:46:58.442Z,62.50
2022-08-21T07:47:45.381Z,62.97
2022-08-21T07:48:32.360Z,62.37
2022-08-21T07:49:19.962Z,61.17
2022-08-21T07:50:08.160Z,61.74
2022-08-21T07:50:56.441Z,61.62
2022-08-21T07:51:43.450Z,61.66
2022-08-21T07:52:31.256Z,61.55
2022-08-21T07:53:19.041Z,61.17
2022-08-21T07:54:06.031Z,61.14
2022-08-21T07:54:54.450Z,60.69
2022-08-21T07:55:41.490Z,60.24
2022-08-21T07:56:30.040Z,60.43
2022-08-21T07:57:17.042Z,59.94
2022-08-21T07:58:08.721Z,60.86
2022-08-21T07:58:55.830Z,60.44
2022-08-21T07:59:42.730Z,60.43
2022-08-21T08:00:31.861Z,60.51
2022-08-21T08:01:19.415Z,59.75
2022-08-21T08:02:06.359Z,59.19
2022-08-21T08:02:55.333Z,61.28
2022-08-21T08:03:42.411Z,61.29
2022-08-21T08:04:29.260Z,61.07
2022-08-21T08:05:17.060Z,61.21
2022-08-21T08:06:05.890Z,60.86
2022-08-21T08:06:52.780Z,60.28
2022-08-21T08:07:39.843Z,59.75
2022-08-21T08:08:27.290Z,59.86
2022-08-21T08:09:14.161Z,60.73
2022-08-21T08:10:01.423Z,60.01
2022-08-21T08:10:48.374Z,59.66
2022-08-21T08:11:44.849Z,59.74
2022-08-21T08:12:31.704Z,59.81
2022-08-21T08:13:18.770Z,59.49
2022-08-21T08:14:05.650Z,59.05
2022-08-21T08:14:52.572Z,59.19
2022-08-21T08:15:39.469Z,59.04
2022-08-21T08:16:27.140Z,58.73
2022-08-21T08:17:14.551Z,58.54
2022-08-21T08:18:01.998Z,58.41
2022-08-21T08:18:48.969Z,57.63
2022-08-21T08:19:35.902Z,57.68
2022-08-21T08:20:23.915Z,56.44
2022-08-21T08:21:11.733Z,56.60
2022-08-21T08:21:59.171Z,55.98
2022-08-21T08:22:50.456Z,55.87
2022-08-21T08:23:37.931Z,56.39
2022-08-21T08:24:24.850Z,56.21
2022-08-21T08:25:13.361Z,56.43
2022-08-21T08:26:00.689Z,56.69
2022-08-21T08:26:53.581Z,55.86
2022-08-21T08:27:41.803Z,55.97
2022-08-21T08:28:28.712Z,55.77
2022-08-21T08:29:15.681Z,56.14
2022-08-21T08:30:02.789Z,56.19
2022-08-21T08:30:50.729Z,56.67
2022-08-21T08:31:37.611Z,55.98
2022-08-21T08:32:24.733Z,56.12
2022-08-21T08:33:11.679Z,56.22
2022-08-21T08:33:58.589Z,56.07
2022-08-21T08:34:45.500Z,56.26
2022-08-21T08:35:32.436Z,56.55
2022-08-21T08:36:20.365Z,56.80
2022-08-21T08:37:09.671Z,55.98
2022-08-21T08:37:56.769Z,55.53
2022-08-21T08:38:44.799Z,55.37
2022-08-21T08:39:32.142Z,55.00
2022-08-21T08:40:34.589Z,54.23
2022-08-21T08:41:30.680Z,54.37
2022-08-21T08:42:31.954Z,53.76
2022-08-21T08:43:20.300Z,53.79
2022-08-21T08:44:08.621Z,53.42
2022-08-21T08:45:01.031Z,53.50
2022-08-21T08:45:51.704Z,53.63
2022-08-21T08:46:49.570Z,54.08
2022-08-21T08:47:42.339Z,53.82
2022-08-21T08:48:40.761Z,54.02
2022-08-21T08:49:37.959Z,54.13
2022-08-21T08:50:27.870Z,54.07
2022-08-21T08:51:24.583Z,53.64
2022-08-21T08:52:23.808Z,53.80
2022-08-21T08:53:18.927Z,54.60
2022-08-21T08:54:14.250Z,54.97
2022-08-21T08:55:08.285Z,54.77
2022-08-21T08:55:58.298Z,53.40
2022-08-21T08:56:49.084Z,53.11
2022-08-21T08:57:40.760Z,54.34
2022-08-21T08:58:36.000Z,55.20
2022-08-21T08:59:29.592Z,54.84
2022-08-21T09:00:20.652Z,54.53
2022-08-21T09:01:16.089Z,54.63
2022-08-21T09:02:04.347Z,54.68
2022-08-21T09:02:57.172Z,54.52
2022-08-21T09:03:51.231Z,54.90
2022-08-21T09:04:41.303Z,54.99
2022-08-21T09:05:43.674Z,54.26
2022-08-21T09:06:41.704Z,54.84
2022-08-21T09:07:42.247Z,54.71
2022-08-21T09:08:34.772Z,55.42
2022-08-21T09:09:40.457Z,56.01
2022-08-21T09:11:13.936Z,56.12
2022-08-21T09:12:19.659Z,56.70
2022-08-21T09:13:20.220Z,55.61
2022-08-21T09:14:07.507Z,55.14
2022-08-21T09:15:08.680Z,55.19
2022-08-21T09:16:25.475Z,56.36
2022-08-21T09:17:31.613Z,57.24
2022-08-21T09:18:35.692Z,56.22
2022-08-21T09:19:38.879Z,56.16
2022-08-21T09:20:32.665Z,56.71
2022-08-21T09:21:26.164Z,56.97
2022-08-21T09:22:26.318Z,56.74
2022-08-21T09:23:31.303Z,56.76
2022-08-21T09:24:54.552Z,56.78
2022-08-21T09:26:13.808Z,55.66
2022-08-21T09:27:12.078Z,56.38
2022-08-21T09:27:59.458Z,56.19
2022-08-21T09:28:48.926Z,55.40
2022-08-21T09:29:44.989Z,55.44
2022-08-21T09:30:33.735Z,55.09
2022-08-21T09:31:34.185Z,55.77
2022-08-21T09:32:37.068Z,55.01
2022-08-21T09:33:24.938Z,55.57
2022-08-21T09:34:13.358Z,55.46
2022-08-21T09:35:20.903Z,55.22
2022-08-21T09:36:07.894Z,55.11
2022-08-21T09:36:54.926Z,55.45
2022-08-21T09:37:53.986Z,55.52
2022-08-21T09:38:41.264Z,55.34
2022-08-21T09:39:40.295Z,55.42
2022-08-21T09:40:37.217Z,55.34
2022-08-21T09:41:30.175Z,55.07
2022-08-21T09:42:25.100Z,55.08
2022-08-21T09:43:26.089Z,55.05
2022-08-21T09:44:13.092Z,55.21
2022-08-21T09:45:08.929Z,55.43
2022-08-21T09:46:06.875Z,55.30
2022-08-21T09:46:53.841Z,55.95
2022-08-21T09:47:41.878Z,56.83
2022-08-21T09:48:33.080Z,56.46
2022-08-21T09:49:33.213Z,56.30
2022-08-21T09:50:26.713Z,55.97
2022-08-21T09:51:20.732Z,55.92
2022-08-21T09:52:20.976Z,55.55
2022-08-21T09:53:17.384Z,55.54
2022-08-21T09:54:07.364Z,55.09
2022-08-21T09:54:56.357Z,55.42
2022-08-21T09:56:17.060Z,55.35
2022-08-21T09:57:39.537Z,54.42
2022-08-21T09:58:36.341Z,54.41
2022-08-21T09:59:36.809Z,54.92
2022-08-21T10:00:28.179Z,54.66
2022-08-21T10:01:18.162Z,55.37
2022-08-21T10:02:24.693Z,55.20
2022-08-21T10:03:13.072Z,55.75
2022-08-21T10:04:11.036Z,56.24
2022-08-21T10:05:05.064Z,55.52
2022-08-21T10:06:09.673Z,55.72
2022-08-21T10:07:08.160Z,56.31
2022-08-21T10:07:55.009Z,56.71
2022-08-21T10:08:42.370Z,56.66
2022-08-21T10:09:29.294Z,57.19
2022-08-21T10:10:24.301Z,57.10
2022-08-21T10:11:15.280Z,56.40
2022-08-21T10:12:11.395Z,56.58
2022-08-21T10:13:15.386Z,56.60
2022-08-21T10:14:02.100Z,56.13
2022-08-21T10:15:25.050Z,56.17
2022-08-21T10:16:38.751Z,56.57
2022-08-21T10:18:04.472Z,56.09
2022-08-21T10:19:16.053Z,55.98
2022-08-21T10:20:02.838Z,55.86
2022-08-21T10:21:05.531Z,55.82
2022-08-21T10:22:00.152Z,55.80
2022-08-21T10:23:06.488Z,55.86
2022-08-21T10:24:30.512Z,55.92
2022-08-21T10:25:27.605Z,55.84
2022-08-21T10:26:17.313Z,55.43
2022-08-21T10:27:29.169Z,55.82
2022-08-21T10:28:54.114Z,54.10
2022-08-21T10:30:00.956Z,54.56
2022-08-21T10:30:53.426Z,54.75
2022-08-21T10:32:15.677Z,54.71
2022-08-21T10:33:21.868Z,54.64
2022-08-21T10:34:14.164Z,54.85
2022-08-21T10:35:35.137Z,55.59
2022-08-21T10:36:32.267Z,55.66
2022-08-21T10:37:31.467Z,56.27
2022-08-21T10:39:07.062Z,56.67
2022-08-21T10:40:17.379Z,57.12
2022-08-21T10:41:23.429Z,57.26
2022-08-21T10:42:30.604Z,57.43
2022-08-21T10:43:35.465Z,57.12
2022-08-21T10:44:43.491Z,57.40
2022-08-21T10:45:58.263Z,57.07